createdAt,value
2023-04-17T00:01:41.491Z,0.10
2023-04-17T00:04:13.085Z,0.20
2023-04-17T00:06:43.456Z,0.07
2023-04-17T00:09:10.727Z,0.20
2023-04-17T00:11:37.576Z,0.10
2023-04-17T00:14:04.654Z,0.10
2023-04-17T00:16:31.587Z,0.20
2023-04-17T00:18:59.542Z,0.00
2023-04-17T00:21:26.378Z,0.20
2023-04-17T00:23:52.927Z,0.10
2023-04-17T00:26:19.686Z,0.00
2023-04-17T00:28:47.521Z,0.00
2023-04-17T00:31:14.118Z,0.03
2023-04-17T00:33:40.948Z,0.27
2023-04-17T00:36:13.357Z,0.10
2023-04-17T00:38:39.967Z,0.17
2023-04-17T00:41:06.553Z,0.10
2023-04-17T00:43:33.135Z,0.00
2023-04-17T00:46:00.032Z,0.10
2023-04-17T00:48:26.830Z,0.10
2023-04-17T00:50:55.162Z,0.33
2023-04-17T00:53:23.096Z,0.03
2023-04-17T00:55:51.418Z,0.10
2023-04-17T00:58:18.810Z,0.03
2023-04-17T01:00:45.591Z,0.07
2023-04-17T01:03:12.693Z,0.13
2023-04-17T01:05:40.228Z,0.10
2023-04-17T01:08:07.196Z,0.00
2023-04-17T01:10:35.151Z,0.10
2023-04-17T01:13:03.317Z,0.10
2023-04-17T01:15:29.888Z,0.00
2023-04-17T01:17:57.172Z,0.10
2023-04-17T01:20:25.223Z,0.10
2023-04-17T01:22:52.170Z,0.10
2023-04-17T01:25:20.338Z,0.00
2023-04-17T01:27:47.009Z,0.10
2023-04-17T01:30:14.301Z,0.30
2023-04-17T01:32:41.484Z,0.07
2023-04-17T01:35:08.920Z,0.00
2023-04-17T01:37:35.721Z,0.10
2023-04-17T01:40:02.416Z,0.00
2023-04-17T01:42:30.423Z,0.10
2023-04-17T01:44:56.968Z,0.10
2023-04-17T01:47:23.588Z,0.10
2023-04-17T01:49:50.236Z,0.10
2023-04-17T01:52:16.827Z,0.10
2023-04-17T01:54:43.378Z,0.03
2023-04-17T01:57:09.977Z,0.10
2023-04-17T01:59:37.945Z,0.00
2023-04-17T02:02:04.685Z,0.07
2023-04-17T02:04:31.412Z,0.10
2023-04-17T02:06:58.158Z,0.10
2023-04-17T02:09:24.725Z,0.03
2023-04-17T02:11:51.287Z,0.10
2023-04-17T02:14:18.369Z,0.00
2023-04-17T02:16:46.308Z,0.10
2023-04-17T02:19:13.289Z,0.13
2023-04-17T02:21:40.048Z,0.07
2023-04-17T02:24:07.065Z,0.00
2023-04-17T02:26:33.941Z,0.00
2023-04-17T02:29:00.716Z,0.00
2023-04-17T02:31:27.384Z,0.10
2023-04-17T02:33:55.434Z,0.07
2023-04-17T02:36:22.190Z,0.17
2023-04-17T02:38:48.767Z,0.07
2023-04-17T02:41:15.480Z,0.10
2023-04-17T02:43:42.109Z,0.00
2023-04-17T02:46:08.714Z,0.20
2023-04-17T02:48:35.437Z,0.00
2023-04-17T02:51:03.574Z,0.10
2023-04-17T02:53:30.328Z,0.07
2023-04-17T02:55:57.928Z,0.10
2023-04-17T02:58:24.564Z,0.00
2023-04-17T03:00:51.225Z,0.10
2023-04-17T03:03:18.103Z,0.10
2023-04-17T03:05:44.908Z,0.20
2023-04-17T03:08:12.859Z,0.03
2023-04-17T03:10:39.513Z,0.07
2023-04-17T03:13:06.300Z,0.00
2023-04-17T03:15:32.945Z,0.00
2023-04-17T03:17:59.578Z,0.00
2023-04-17T03:20:26.327Z,0.10
2023-04-17T03:22:52.957Z,0.10
2023-04-17T03:25:21.149Z,0.10
2023-04-17T03:27:47.739Z,0.00
2023-04-17T03:30:14.481Z,0.00
2023-04-17T03:32:42.060Z,0.10
2023-04-17T03:35:09.148Z,0.10
2023-04-17T03:37:35.713Z,0.03
2023-04-17T03:40:02.352Z,0.30
2023-04-17T03:42:30.432Z,0.27
2023-04-17T03:44:57.043Z,0.10
2023-04-17T03:47:23.747Z,0.10
2023-04-17T03:49:50.412Z,0.10
2023-04-17T03:52:17.083Z,0.13
2023-04-17T03:54:43.664Z,0.20
2023-04-17T03:57:10.558Z,0.30
2023-04-17T03:59:38.531Z,0.30
2023-04-17T04:02:05.255Z,0.20
2023-04-17T04:04:32.122Z,0.30
2023-04-17T04:07:01.544Z,0.30
2023-04-17T04:09:28.320Z,0.35
2023-04-17T04:11:54.958Z,0.40
2023-04-17T04:14:21.593Z,0.30
2023-04-17T04:16:49.575Z,0.30
2023-04-17T04:19:16.222Z,0.40
2023-04-17T04:21:43.538Z,0.27
2023-04-17T04:24:13.282Z,0.50
2023-04-17T04:29:07.736Z,0.47
2023-04-17T04:31:35.609Z,0.43
2023-04-17T04:34:03.743Z,0.50
2023-04-17T04:36:31.161Z,0.30
2023-04-17T04:39:00.929Z,0.30
2023-04-17T04:41:30.060Z,0.40
2023-04-17T04:43:56.831Z,0.40
2023-04-17T04:46:23.474Z,0.33
2023-04-17T04:48:50.211Z,0.20
2023-04-17T04:51:21.829Z,0.40
2023-04-17T04:53:48.526Z,0.47
2023-04-17T04:56:15.463Z,0.40
2023-04-17T04:58:42.105Z,0.43
2023-04-17T05:01:08.938Z,0.30
2023-04-17T05:03:37.345Z,0.40
2023-04-17T05:06:04.360Z,0.60
2023-04-17T05:08:32.517Z,0.43
2023-04-17T05:10:59.207Z,0.80
2023-04-17T05:13:25.967Z,1.53
2023-04-17T05:15:52.648Z,1.77
2023-04-17T05:18:19.307Z,1.57
2023-04-17T05:20:45.992Z,1.77
2023-04-17T05:23:12.644Z,1.80
2023-04-17T05:25:40.981Z,1.83
2023-04-17T05:28:07.793Z,2.07
2023-04-17T05:30:35.022Z,1.80
2023-04-17T05:33:01.967Z,1.70
2023-04-17T05:35:28.695Z,2.50
2023-04-17T05:37:56.185Z,1.67
2023-04-17T05:40:23.029Z,2.03
2023-04-17T05:42:50.957Z,2.13
2023-04-17T05:45:21.097Z,1.60
2023-04-17T05:47:48.856Z,2.37
2023-04-17T05:50:15.597Z,1.70
2023-04-17T05:52:42.307Z,1.80
2023-04-17T05:55:09.499Z,2.23
2023-04-17T05:57:36.430Z,1.37
2023-04-17T06:00:10.637Z,1.77
2023-04-17T06:02:38.166Z,2.10
2023-04-17T06:05:06.940Z,2.30
2023-04-17T06:07:34.438Z,2.30
2023-04-17T06:10:01.243Z,2.40
2023-04-17T06:12:27.955Z,2.67
2023-04-17T06:14:54.983Z,2.33
2023-04-17T06:17:23.130Z,2.73
2023-04-17T06:19:49.730Z,8.90
2023-04-17T06:22:16.727Z,3.70
2023-04-17T06:24:43.331Z,8.80
2023-04-17T06:27:09.928Z,7.20
2023-04-17T06:29:36.495Z,2.40
2023-04-17T06:32:03.079Z,4.27
2023-04-17T06:34:32.073Z,3.50
2023-04-17T06:36:59.152Z,3.03
2023-04-17T06:39:28.416Z,2.40
2023-04-17T06:41:56.182Z,2.30
2023-04-17T06:44:22.795Z,2.47
2023-04-17T06:46:51.529Z,2.30
2023-04-17T06:49:18.281Z,2.15
2023-04-17T06:51:47.348Z,2.27
2023-04-17T06:54:14.120Z,2.38
2023-04-17T06:56:40.991Z,3.67
2023-04-17T06:59:07.618Z,2.27
2023-04-17T07:01:35.085Z,3.93
2023-04-17T07:04:02.308Z,3.30
2023-04-17T07:06:29.355Z,3.53
2023-04-17T07:08:57.318Z,8.07
2023-04-17T07:11:23.942Z,1.57
2023-04-17T07:13:50.576Z,2.70
2023-04-17T07:16:17.383Z,3.10
2023-04-17T07:18:44.066Z,2.20
2023-04-17T07:21:10.783Z,1.93
2023-04-17T07:23:37.515Z,1.70
2023-04-17T07:26:06.048Z,1.97
2023-04-17T07:28:32.817Z,2.67
2023-04-17T07:30:59.597Z,3.10
2023-04-17T07:33:26.536Z,2.33
2023-04-17T07:35:53.909Z,2.37
2023-04-17T07:38:20.537Z,1.70
2023-04-17T07:40:47.136Z,1.50
2023-04-17T07:43:16.675Z,1.83
2023-04-17T07:45:43.328Z,1.90
2023-04-17T07:48:10.048Z,1.90
2023-04-17T07:50:36.693Z,1.07
2023-04-17T07:53:03.275Z,1.10
2023-04-17T07:55:30.030Z,1.70
2023-04-17T07:57:56.591Z,2.03
2023-04-17T08:00:24.636Z,1.17
2023-04-17T08:02:51.388Z,1.20
2023-04-17T08:05:18.438Z,1.37
2023-04-17T08:07:45.315Z,1.20
2023-04-17T08:10:11.918Z,1.00
2023-04-17T08:12:38.633Z,1.00
2023-04-17T08:15:06.174Z,1.53
2023-04-17T08:17:34.573Z,1.33
2023-04-17T08:20:11.821Z,1.17
2023-04-17T08:22:40.016Z,1.20
2023-04-17T08:25:09.429Z,1.50
2023-04-17T08:27:36.406Z,1.40
2023-04-17T08:30:04.134Z,1.00
2023-04-17T08:32:36.931Z,1.20
2023-04-17T08:35:05.998Z,1.17
2023-04-17T08:37:32.918Z,1.08
2023-04-17T08:39:59.565Z,1.40
2023-04-17T08:42:27.492Z,1.20
2023-04-17T08:44:58.958Z,1.33
2023-04-17T08:47:25.727Z,1.40
2023-04-17T08:49:52.538Z,1.13
2023-04-17T08:52:20.641Z,1.67
2023-04-17T08:54:50.557Z,0.87
2023-04-17T08:57:17.943Z,1.87
2023-04-17T08:59:45.943Z,1.40
2023-04-17T09:02:12.829Z,0.90
2023-04-17T09:04:41.912Z,1.23
2023-04-17T09:07:10.646Z,1.38
2023-04-17T09:09:49.046Z,0.93
2023-04-17T09:12:15.917Z,1.07
2023-04-17T09:14:42.869Z,1.20
2023-04-17T09:17:09.578Z,1.73
2023-04-17T09:19:36.261Z,1.10
2023-04-17T09:22:20.028Z,0.80
2023-04-17T09:24:48.636Z,1.53
2023-04-17T09:27:22.815Z,1.27
2023-04-17T09:29:59.387Z,1.00
2023-04-17T09:32:29.321Z,1.10
2023-04-17T09:34:58.110Z,1.50
2023-04-17T09:37:24.794Z,1.50
2023-04-17T09:40:00.275Z,1.50
2023-04-17T09:42:27.742Z,1.40
2023-04-17T09:44:54.744Z,1.30
2023-04-17T09:47:22.741Z,1.03
2023-04-17T09:49:52.443Z,1.00
2023-04-17T09:52:20.750Z,1.33
2023-04-17T09:54:49.264Z,1.10
2023-04-17T09:57:18.349Z,1.00
2023-04-17T09:59:48.814Z,1.00
2023-04-17T10:02:17.327Z,0.90
2023-04-17T10:04:45.711Z,0.93
2023-04-17T10:07:13.233Z,0.90
2023-04-17T10:09:41.745Z,0.97
2023-04-17T10:12:13.612Z,0.90
2023-04-17T10:14:46.611Z,1.00
2023-04-17T10:17:24.025Z,1.10
2023-04-17T10:19:50.916Z,0.60
2023-04-17T10:22:34.087Z,0.70
2023-04-17T10:25:23.447Z,1.13
2023-04-17T10:27:55.017Z,0.90
2023-04-17T10:30:23.827Z,0.97
2023-04-17T10:33:22.037Z,1.40
2023-04-17T10:35:49.084Z,0.90
2023-04-17T10:38:16.338Z,1.10
2023-04-17T10:40:43.982Z,0.80
2023-04-17T10:43:15.264Z,0.73
2023-04-17T10:46:10.221Z,0.80
2023-04-17T10:48:39.053Z,1.07
2023-04-17T10:51:42.462Z,0.85
2023-04-17T10:54:15.318Z,0.90
2023-04-17T10:56:43.227Z,0.70
2023-04-17T10:59:11.598Z,0.80
2023-04-17T11:01:58.067Z,1.17
2023-04-17T11:04:28.266Z,0.90
2023-04-17T11:06:55.726Z,0.97
2023-04-17T11:09:24.194Z,0.87
2023-04-17T11:11:50.988Z,1.57
2023-04-17T11:14:19.110Z,1.47
2023-04-17T11:16:49.542Z,1.67
2023-04-17T11:19:18.776Z,1.17
2023-04-17T11:21:45.748Z,1.75
2023-04-17T11:24:12.355Z,1.77
2023-04-17T11:26:42.777Z,1.47
2023-04-17T11:29:14.249Z,1.30
2023-04-17T11:32:05.169Z,1.17
2023-04-17T11:34:31.930Z,1.33
2023-04-17T11:37:00.410Z,1.40
2023-04-17T11:39:29.901Z,0.80
2023-04-17T11:41:57.246Z,1.10
2023-04-17T11:44:24.826Z,1.37
2023-04-17T11:46:52.456Z,1.33
2023-04-17T11:49:26.581Z,1.20
2023-04-17T11:51:53.429Z,1.60
2023-04-17T11:54:21.241Z,2.00
2023-04-17T11:56:58.425Z,1.30
2023-04-17T11:59:30.868Z,1.40
2023-04-17T12:02:00.654Z,1.43
2023-04-17T12:04:30.128Z,1.37
2023-04-17T12:06:59.153Z,1.60
2023-04-17T12:09:31.357Z,1.40
2023-04-17T12:11:58.424Z,1.30
2023-04-17T12:14:26.402Z,1.33
2023-04-17T12:16:53.534Z,1.20
2023-04-17T12:19:20.318Z,1.20
2023-04-17T12:21:48.258Z,1.40
2023-04-17T12:24:15.333Z,1.27
2023-04-17T12:26:46.782Z,1.43
2023-04-17T12:29:13.437Z,1.23
2023-04-17T12:31:40.333Z,1.50
2023-04-17T12:34:07.181Z,1.07
2023-04-17T12:36:35.627Z,1.20
2023-04-17T12:39:04.019Z,1.30
2023-04-17T12:41:31.899Z,1.73
2023-04-17T12:44:01.734Z,2.47
2023-04-17T12:46:28.657Z,2.67
2023-04-17T12:48:58.473Z,3.50
2023-04-17T12:51:27.892Z,5.10
2023-04-17T12:53:55.026Z,1.80
2023-04-17T12:56:23.159Z,3.10
2023-04-17T12:58:49.928Z,3.60
2023-04-17T13:01:16.633Z,2.97
2023-04-17T13:03:43.712Z,10.63
2023-04-17T13:06:10.624Z,14.60
2023-04-17T13:08:37.271Z,14.30
2023-04-17T13:11:04.686Z,9.90
2023-04-17T13:13:32.657Z,1.67
2023-04-17T13:15:59.501Z,2.20
2023-04-17T13:18:26.379Z,3.00
2023-04-17T13:20:53.007Z,2.30
2023-04-17T13:23:19.658Z,2.83
2023-04-17T13:25:46.814Z,1.60
2023-04-17T13:28:13.794Z,1.80
2023-04-17T13:30:41.896Z,1.60
2023-04-17T13:33:08.874Z,2.10
2023-04-17T13:35:35.682Z,2.30
2023-04-17T13:38:03.134Z,2.30
2023-04-17T13:40:30.420Z,3.10
2023-04-17T13:42:57.083Z,2.03
2023-04-17T13:45:23.773Z,2.30
2023-04-17T13:47:51.783Z,1.60
2023-04-17T13:50:18.609Z,1.60
2023-04-17T13:52:45.256Z,1.67
2023-04-17T13:55:14.637Z,1.93
2023-04-17T13:57:41.506Z,1.42
2023-04-17T14:00:10.645Z,1.70
2023-04-17T14:02:37.599Z,1.70
2023-04-17T14:05:09.739Z,1.87
2023-04-17T14:07:37.595Z,1.58
2023-04-17T14:10:04.970Z,2.00
2023-04-17T14:12:31.651Z,1.77
2023-04-17T14:14:58.402Z,1.80
2023-04-17T14:17:25.203Z,1.90
2023-04-17T14:19:52.508Z,1.77
2023-04-17T14:22:20.547Z,2.00
2023-04-17T14:24:47.135Z,1.50
2023-04-17T14:27:13.786Z,2.77
2023-04-17T14:29:42.758Z,2.10
2023-04-17T14:32:09.404Z,2.22
2023-04-17T14:34:35.996Z,2.00
2023-04-17T14:37:02.601Z,2.00
2023-04-17T14:39:31.606Z,2.20
2023-04-17T14:41:59.759Z,2.58
2023-04-17T14:44:28.456Z,2.10
2023-04-17T14:46:56.795Z,2.00
2023-04-17T14:49:23.782Z,3.17
2023-04-17T14:51:50.425Z,2.80
2023-04-17T14:54:17.052Z,3.03
2023-04-17T14:56:45.406Z,2.73
2023-04-17T14:59:12.372Z,2.80
2023-04-17T15:01:39.254Z,3.13
2023-04-17T15:04:06.382Z,2.37
2023-04-17T15:06:33.342Z,2.00
2023-04-17T15:08:59.969Z,1.93
2023-04-17T15:11:26.560Z,1.80
2023-04-17T15:13:54.563Z,1.80
2023-04-17T15:16:21.209Z,4.20
2023-04-17T15:18:48.049Z,4.33
2023-04-17T15:21:15.559Z,27.83
2023-04-17T15:23:42.242Z,7.00
2023-04-17T15:26:09.145Z,2.80
2023-04-17T15:28:36.196Z,2.33
2023-04-17T15:31:04.141Z,2.37
2023-04-17T15:33:31.541Z,3.73
2023-04-17T15:35:59.194Z,3.30
2023-04-17T15:38:26.542Z,2.00
2023-04-17T15:40:53.468Z,2.17
2023-04-17T15:43:20.574Z,2.60
2023-04-17T15:45:48.833Z,2.50
2023-04-17T15:48:17.133Z,2.20
2023-04-17T15:50:43.981Z,2.50
2023-04-17T15:53:10.648Z,2.93
2023-04-17T15:55:38.369Z,4.33
2023-04-17T15:58:05.166Z,2.30
2023-04-17T16:00:31.894Z,2.67
2023-04-17T16:02:58.686Z,2.27
2023-04-17T16:05:26.789Z,2.30
2023-04-17T16:07:53.470Z,2.33
2023-04-17T16:10:20.025Z,2.37
2023-04-17T16:12:46.815Z,2.30
2023-04-17T16:15:14.619Z,3.00
2023-04-17T16:17:41.833Z,2.17
2023-04-17T16:20:09.745Z,2.47
2023-04-17T16:22:37.827Z,2.23
2023-04-17T16:25:05.152Z,3.10
2023-04-17T16:27:32.599Z,2.17
2023-04-17T16:29:59.340Z,2.20
2023-04-17T16:32:27.690Z,3.40
2023-04-17T16:34:54.628Z,3.90
2023-04-17T16:37:21.407Z,3.40
2023-04-17T16:39:50.678Z,3.80
2023-04-17T16:42:17.616Z,2.40
2023-04-17T16:44:45.564Z,1.93
2023-04-17T16:47:14.161Z,2.93
2023-04-17T16:49:41.279Z,2.53
2023-04-17T16:52:07.946Z,3.40
2023-04-17T16:54:34.817Z,2.60
2023-04-17T16:57:02.856Z,3.40
2023-04-17T16:59:29.472Z,2.93
2023-04-17T17:01:56.174Z,2.73
2023-04-17T17:04:22.919Z,3.10
2023-04-17T17:06:49.694Z,3.00
2023-04-17T17:09:16.389Z,2.77
2023-04-17T17:11:43.035Z,3.00
2023-04-17T17:14:11.340Z,4.63
2023-04-17T17:16:38.056Z,3.47
2023-04-17T17:19:05.196Z,3.13
2023-04-17T17:21:32.410Z,3.17
2023-04-17T17:23:59.031Z,3.43
2023-04-17T17:26:25.821Z,3.60
2023-04-17T17:28:53.381Z,3.30
2023-04-17T17:31:21.450Z,3.77
2023-04-17T17:33:53.193Z,3.87
2023-04-17T17:36:21.770Z,3.47
2023-04-17T17:38:55.327Z,3.53
2023-04-17T17:41:22.412Z,3.30
2023-04-17T17:43:49.041Z,3.20
2023-04-17T17:46:15.969Z,3.63
2023-04-17T17:48:44.004Z,3.40
2023-04-17T17:51:10.592Z,3.43
2023-04-17T17:53:37.416Z,3.50
2023-04-17T17:56:04.360Z,3.20
2023-04-17T17:58:30.955Z,3.53
2023-04-17T18:00:57.535Z,3.33
2023-04-17T18:03:24.293Z,3.20
2023-04-17T18:05:52.687Z,3.00
2023-04-17T18:08:19.495Z,3.47
2023-04-17T18:10:46.064Z,4.03
2023-04-17T18:13:12.672Z,3.13
2023-04-17T18:15:39.378Z,3.23
2023-04-17T18:18:06.039Z,3.40
2023-04-17T18:20:37.293Z,3.23
2023-04-17T18:23:05.211Z,3.53
2023-04-17T18:25:31.931Z,3.27
2023-04-17T18:27:58.524Z,3.30
2023-04-17T18:30:25.266Z,2.97
2023-04-17T18:32:51.944Z,3.40
2023-04-17T18:35:18.995Z,3.27
2023-04-17T18:37:45.588Z,3.50
2023-04-17T18:40:13.978Z,3.33
2023-04-17T18:42:40.581Z,3.17
2023-04-17T18:45:08.086Z,3.10
2023-04-17T18:47:34.782Z,4.17
2023-04-17T18:50:01.516Z,3.27
2023-04-17T18:52:28.096Z,3.20
2023-04-17T18:54:54.670Z,3.30
2023-04-17T18:57:22.625Z,3.20
2023-04-17T18:59:49.314Z,3.33
2023-04-17T19:02:15.911Z,3.70
2023-04-17T19:04:42.564Z,3.47
2023-04-17T19:07:09.261Z,3.43
2023-04-17T19:09:35.928Z,3.40
2023-04-17T19:12:02.780Z,3.47
2023-04-17T19:14:32.612Z,3.73
2023-04-17T19:16:59.267Z,3.33
2023-04-17T19:19:25.855Z,3.80
2023-04-17T19:21:52.447Z,3.70
2023-04-17T19:24:19.163Z,3.50
2023-04-17T19:26:45.995Z,3.80
2023-04-17T19:29:13.429Z,3.30
2023-04-17T19:31:41.604Z,3.43
2023-04-17T19:34:10.338Z,3.70
2023-04-17T19:36:37.295Z,3.80
2023-04-17T19:39:04.910Z,3.50
2023-04-17T19:41:31.465Z,3.50
2023-04-17T19:43:58.065Z,3.77
2023-04-17T19:46:25.722Z,3.67
2023-04-17T19:48:53.701Z,3.73
2023-04-17T19:51:20.320Z,3.70
2023-04-17T19:53:48.007Z,3.87
2023-04-17T19:56:14.853Z,3.90
2023-04-17T19:58:41.976Z,3.67
2023-04-17T20:01:08.697Z,3.67
2023-04-17T20:03:38.072Z,3.57
2023-04-17T20:08:35.912Z,3.67
2023-04-17T20:11:04.378Z,4.15
2023-04-17T20:13:31.051Z,3.87
2023-04-17T20:15:57.732Z,4.33
2023-04-17T20:18:24.964Z,4.30
2023-04-17T20:20:51.553Z,4.13
2023-04-17T20:23:19.633Z,4.07
2023-04-17T20:25:46.527Z,3.73
2023-04-17T20:28:13.260Z,3.93
2023-04-17T20:30:39.847Z,3.57
2023-04-17T20:33:06.565Z,3.43
2023-04-17T20:35:33.272Z,3.97
2023-04-17T20:37:59.885Z,3.77
2023-04-17T20:40:28.127Z,4.53
2023-04-17T20:42:54.785Z,4.10
2023-04-17T20:45:21.632Z,4.33
2023-04-17T20:50:19.568Z,3.47
2023-04-17T20:52:47.093Z,4.40
2023-04-17T20:55:13.714Z,3.70
2023-04-17T20:57:41.656Z,4.00
2023-04-17T21:00:09.556Z,6.23
2023-04-17T21:02:36.215Z,3.77
2023-04-17T21:05:02.967Z,4.30
2023-04-17T21:07:30.577Z,4.17
2023-04-17T21:09:57.164Z,4.10
2023-04-17T21:12:23.786Z,3.97
2023-04-17T21:14:51.823Z,3.70
2023-04-17T21:17:18.444Z,4.50
2023-04-17T21:19:45.979Z,3.77
2023-04-17T21:22:13.058Z,3.77
2023-04-17T21:24:39.721Z,4.30
2023-04-17T21:27:06.370Z,4.07
2023-04-17T21:29:33.217Z,4.10
2023-04-17T21:32:01.325Z,4.50
2023-04-17T21:34:28.075Z,4.37
2023-04-17T21:36:54.669Z,4.47
2023-04-17T21:39:21.645Z,4.33
2023-04-17T21:41:48.358Z,4.00
2023-04-17T21:44:15.452Z,4.70
2023-04-17T21:46:43.948Z,4.20
2023-04-17T21:49:11.963Z,4.27
2023-04-17T21:51:38.574Z,4.17
2023-04-17T21:54:05.499Z,4.13
2023-04-17T21:56:32.286Z,4.50
2023-04-17T21:58:58.936Z,3.97
2023-04-17T22:01:25.596Z,4.50
2023-04-17T22:03:52.181Z,4.63
2023-04-17T22:06:20.103Z,4.27
2023-04-17T22:08:46.688Z,4.33
2023-04-17T22:11:13.256Z,4.30
2023-04-17T22:13:39.942Z,3.90
2023-04-17T22:16:06.800Z,3.83
2023-04-17T22:18:33.336Z,4.50
2023-04-17T22:20:59.913Z,4.33
2023-04-17T22:23:27.866Z,4.50
2023-04-17T22:25:54.512Z,4.27
2023-04-17T22:28:21.079Z,4.30
2023-04-17T22:30:49.915Z,4.03
2023-04-17T22:33:16.502Z,4.25
2023-04-17T22:35:43.095Z,4.20
2023-04-17T22:38:09.644Z,4.10
2023-04-17T22:40:38.095Z,4.23
2023-04-17T22:43:04.635Z,4.40
2023-04-17T22:45:31.283Z,3.87
2023-04-17T22:47:57.956Z,4.07
2023-04-17T22:50:24.576Z,3.90
2023-04-17T22:52:51.236Z,4.20
2023-04-17T22:55:17.956Z,3.97
2023-04-17T22:57:45.870Z,4.07
2023-04-17T23:00:13.857Z,4.10
2023-04-17T23:02:40.591Z,4.43
2023-04-17T23:05:08.372Z,4.10
2023-04-17T23:07:35.039Z,3.90
2023-04-17T23:10:01.822Z,4.07
2023-04-17T23:12:28.478Z,3.97
2023-04-17T23:14:57.691Z,4.30
2023-04-17T23:17:24.333Z,3.75
2023-04-17T23:19:51.182Z,3.77
2023-04-17T23:22:17.747Z,4.20
2023-04-17T23:24:44.322Z,4.33
2023-04-17T23:27:10.916Z,4.40
2023-04-17T23:29:37.526Z,4.20
2023-04-17T23:32:06.768Z,3.80
2023-04-17T23:34:33.357Z,4.75
2023-04-17T23:36:59.909Z,4.13
2023-04-17T23:39:26.453Z,4.83
2023-04-17T23:41:53.434Z,4.80
2023-04-17T23:44:20.041Z,3.97
2023-04-17T23:46:46.752Z,4.37
2023-04-17T23:49:14.671Z,4.30
2023-04-17T23:51:41.252Z,4.37
2023-04-17T23:54:07.965Z,4.10
2023-04-17T23:56:34.705Z,4.57
2023-04-17T23:59:01.297Z,4.00
